sensor_id;sensor_type;location;lat;lon;timestamp;temperature;humidity
18153;DHT22;9202;51.578;7.734;2023-08-31T00:01:08;12.60;99.90
18153;DHT22;9202;51.578;7.734;2023-08-31T00:03:12;12.60;99.90
18153;DHT22;9202;51.578;7.734;2023-08-31T00:05:16;12.60;99.90
18153;DHT22;9202;51.578;7.734;2023-08-31T00:07:20;12.60;99.90
18153;DHT22;9202;51.578;7.734;2023-08-31T00:09:24;12.60;99.90
18153;DHT22;9202;51.578;7.734;2023-08-31T00:11:27;12.60;99.90
18153;DHT22;9202;51.578;7.734;2023-08-31T00:13:30;12.60;99.90
18153;DHT22;9202;51.578;7.734;2023-08-31T00:15:32;12.60;99.90
18153;DHT22;9202;51.578;7.734;2023-08-31T00:17:37;12.60;99.90
18153;DHT22;9202;51.578;7.734;2023-08-31T00:19:40;12.60;99.90
18153;DHT22;9202;51.578;7.734;2023-08-31T00:21:43;12.60;99.90
18153;DHT22;9202;51.578;7.734;2023-08-31T00:23:46;12.60;99.90
18153;DHT22;9202;51.578;7.734;2023-08-31T00:25:49;12.60;99.90
18153;DHT22;9202;51.578;7.734;2023-08-31T00:27:53;12.60;99.90
18153;DHT22;9202;51.578;7.734;2023-08-31T00:29:56;12.60;99.90
18153;DHT22;9202;51.578;7.734;2023-08-31T00:32:00;12.60;99.90
18153;DHT22;9202;51.578;7.734;2023-08-31T00:34:03;12.60;99.90
18153;DHT22;9202;51.578;7.734;2023-08-31T00:36:07;12.60;99.90
18153;DHT22;9202;51.578;7.734;2023-08-31T00:38:10;12.60;99.90
18153;DHT22;9202;51.578;7.734;2023-08-31T00:40:13;12.60;99.90
18153;DHT22;9202;51.578;7.734;2023-08-31T00:42:17;12.60;99.90
18153;DHT22;9202;51.578;7.734;2023-08-31T00:44:20;12.60;99.90
18153;DHT22;9202;51.578;7.734;2023-08-31T00:46:23;12.60;99.90
18153;DHT22;9202;51.578;7.734;2023-08-31T00:48:26;12.70;99.90
18153;DHT22;9202;51.578;7.734;2023-08-31T00:50:29;12.60;99.90
18153;DHT22;9202;51.578;7.734;2023-08-31T00:52:32;12.60;99.90
18153;DHT22;9202;51.578;7.734;2023-08-31T00:54:36;12.50;99.90
18153;DHT22;9202;51.578;7.734;2023-08-31T00:56:39;12.60;99.90
18153;DHT22;9202;51.578;7.734;2023-08-31T00:58:43;12.60;99.90
18153;DHT22;9202;51.578;7.734;2023-08-31T01:00:50;12.60;99.90
18153;DHT22;9202;51.578;7.734;2023-08-31T01:02:55;12.60;99.90
18153;DHT22;9202;51.578;7.734;2023-08-31T01:04:59;12.60;99.90
18153;DHT22;9202;51.578;7.734;2023-08-31T01:07:07;12.60;99.90
18153;DHT22;9202;51.578;7.734;2023-08-31T01:09:14;12.60;99.90
18153;DHT22;9202;51.578;7.734;2023-08-31T01:11:21;12.70;99.90
18153;DHT22;9202;51.578;7.734;2023-08-31T01:15:37;12.70;99.90
18153;DHT22;9202;51.578;7.734;2023-08-31T01:17:41;12.60;99.90
18153;DHT22;9202;51.578;7.734;2023-08-31T01:19:47;12.70;99.90
18153;DHT22;9202;51.578;7.734;2023-08-31T01:21:50;13.10;99.90
18153;DHT22;9202;51.578;7.734;2023-08-31T01:23:55;13.20;99.90
18153;DHT22;9202;51.578;7.734;2023-08-31T01:25:58;12.70;99.90
18153;DHT22;9202;51.578;7.734;2023-08-31T01:28:01;12.60;99.90
18153;DHT22;9202;51.578;7.734;2023-08-31T01:30:07;12.60;99.90
18153;DHT22;9202;51.578;7.734;2023-08-31T01:32:10;12.60;99.90
18153;DHT22;9202;51.578;7.734;2023-08-31T01:36:38;12.70;99.90
18153;DHT22;9202;51.578;7.734;2023-08-31T01:38:41;12.70;99.90
18153;DHT22;9202;51.578;7.734;2023-08-31T01:40:48;11.60;99.90
18153;DHT22;9202;51.578;7.734;2023-08-31T01:42:52;12.60;99.90
18153;DHT22;9202;51.578;7.734;2023-08-31T01:44:55;12.60;99.90
18153;DHT22;9202;51.578;7.734;2023-08-31T01:47:03;12.60;99.90
18153;DHT22;9202;51.578;7.734;2023-08-31T01:49:05;12.60;99.90
18153;DHT22;9202;51.578;7.734;2023-08-31T01:51:09;12.60;99.90
18153;DHT22;9202;51.578;7.734;2023-08-31T01:53:12;12.60;99.90
18153;DHT22;9202;51.578;7.734;2023-08-31T01:55:17;12.60;99.90
18153;DHT22;9202;51.578;7.734;2023-08-31T01:57:20;12.60;99.90
18153;DHT22;9202;51.578;7.734;2023-08-31T01:59:25;12.50;99.90
18153;DHT22;9202;51.578;7.734;2023-08-31T02:01:29;12.50;99.90
18153;DHT22;9202;51.578;7.734;2023-08-31T02:03:32;12.50;99.90
18153;DHT22;9202;51.578;7.734;2023-08-31T02:05:35;12.50;99.90
18153;DHT22;9202;51.578;7.734;2023-08-31T02:07:38;12.50;99.90
18153;DHT22;9202;51.578;7.734;2023-08-31T02:09:42;12.50;99.90
18153;DHT22;9202;51.578;7.734;2023-08-31T02:11:45;12.50;99.90
18153;DHT22;9202;51.578;7.734;2023-08-31T02:13:50;12.70;99.90
18153;DHT22;9202;51.578;7.734;2023-08-31T02:15:53;12.40;99.90
18153;DHT22;9202;51.578;7.734;2023-08-31T02:17:56;12.30;99.90
18153;DHT22;9202;51.578;7.734;2023-08-31T02:19:59;12.40;99.90
18153;DHT22;9202;51.578;7.734;2023-08-31T02:22:03;12.30;99.90
18153;DHT22;9202;51.578;7.734;2023-08-31T02:24:07;12.30;99.90
18153;DHT22;9202;51.578;7.734;2023-08-31T02:26:11;12.30;99.90
18153;DHT22;9202;51.578;7.734;2023-08-31T02:28:14;12.20;99.90
18153;DHT22;9202;51.578;7.734;2023-08-31T02:30:17;12.20;99.90
18153;DHT22;9202;51.578;7.734;2023-08-31T02:32:20;12.10;99.90
18153;DHT22;9202;51.578;7.734;2023-08-31T02:34:23;12.10;99.90
18153;DHT22;9202;51.578;7.734;2023-08-31T02:36:26;12.10;99.90
18153;DHT22;9202;51.578;7.734;2023-08-31T02:38:29;12.10;99.90
18153;DHT22;9202;51.578;7.734;2023-08-31T02:40:32;12.00;99.90
18153;DHT22;9202;51.578;7.734;2023-08-31T02:42:37;12.00;99.90
18153;DHT22;9202;51.578;7.734;2023-08-31T02:44:39;12.00;99.90
18153;DHT22;9202;51.578;7.734;2023-08-31T02:46:42;11.90;99.90
18153;DHT22;9202;51.578;7.734;2023-08-31T02:48:47;11.90;99.90
18153;DHT22;9202;51.578;7.734;2023-08-31T02:50:50;12.00;99.90
18153;DHT22;9202;51.578;7.734;2023-08-31T02:52:53;11.90;99.90
18153;DHT22;9202;51.578;7.734;2023-08-31T02:54:56;11.90;99.90
18153;DHT22;9202;51.578;7.734;2023-08-31T02:56:59;11.90;99.90
18153;DHT22;9202;51.578;7.734;2023-08-31T02:59:05;11.90;99.90
18153;DHT22;9202;51.578;7.734;2023-08-31T03:01:09;11.80;99.90
18153;DHT22;9202;51.578;7.734;2023-08-31T03:03:15;11.80;99.90
18153;DHT22;9202;51.578;7.734;2023-08-31T03:05:19;11.80;99.90
18153;DHT22;9202;51.578;7.734;2023-08-31T03:07:23;11.80;99.90
18153;DHT22;9202;51.578;7.734;2023-08-31T03:09:26;11.70;99.90
18153;DHT22;9202;51.578;7.734;2023-08-31T03:11:30;11.70;99.90
18153;DHT22;9202;51.578;7.734;2023-08-31T03:13:33;11.70;99.90
18153;DHT22;9202;51.578;7.734;2023-08-31T03:15:37;11.70;99.90
18153;DHT22;9202;51.578;7.734;2023-08-31T03:17:39;11.70;99.90
18153;DHT22;9202;51.578;7.734;2023-08-31T03:19:44;11.70;99.90
18153;DHT22;9202;51.578;7.734;2023-08-31T03:21:47;11.60;99.90
18153;DHT22;9202;51.578;7.734;2023-08-31T03:23:50;11.60;99.90
18153;DHT22;9202;51.578;7.734;2023-08-31T03:28:10;11.50;99.90
18153;DHT22;9202;51.578;7.734;2023-08-31T03:30:13;11.60;99.90
18153;DHT22;9202;51.578;7.734;2023-08-31T03:32:16;11.60;99.90
18153;DHT22;9202;51.578;7.734;2023-08-31T03:34:19;11.60;99.90
18153;DHT22;9202;51.578;7.734;2023-08-31T03:36:22;11.50;99.90
18153;DHT22;9202;51.578;7.734;2023-08-31T03:38:26;11.50;99.90
18153;DHT22;9202;51.578;7.734;2023-08-31T03:40:29;11.50;99.90
18153;DHT22;9202;51.578;7.734;2023-08-31T03:42:32;11.50;99.90
18153;DHT22;9202;51.578;7.734;2023-08-31T03:44:37;11.50;99.90
18153;DHT22;9202;51.578;7.734;2023-08-31T03:46:40;11.50;99.90
18153;DHT22;9202;51.578;7.734;2023-08-31T03:48:43;11.50;99.90
18153;DHT22;9202;51.578;7.734;2023-08-31T03:50:49;11.50;99.90
18153;DHT22;9202;51.578;7.734;2023-08-31T03:52:52;11.40;99.90
18153;DHT22;9202;51.578;7.734;2023-08-31T03:54:55;11.50;99.90
18153;DHT22;9202;51.578;7.734;2023-08-31T03:56:58;11.40;99.90
18153;DHT22;9202;51.578;7.734;2023-08-31T03:59:01;11.40;99.90
18153;DHT22;9202;51.578;7.734;2023-08-31T04:01:06;11.40;99.90
18153;DHT22;9202;51.578;7.734;2023-08-31T04:03:09;11.40;99.90
18153;DHT22;9202;51.578;7.734;2023-08-31T04:05:12;11.40;99.90
18153;DHT22;9202;51.578;7.734;2023-08-31T04:07:18;11.40;99.90
18153;DHT22;9202;51.578;7.734;2023-08-31T04:09:21;11.40;99.90
18153;DHT22;9202;51.578;7.734;2023-08-31T04:11:25;11.40;99.90
18153;DHT22;9202;51.578;7.734;2023-08-31T04:13:28;11.40;99.90
18153;DHT22;9202;51.578;7.734;2023-08-31T04:15:32;11.40;99.90
18153;DHT22;9202;51.578;7.734;2023-08-31T04:17:36;11.40;99.90
18153;DHT22;9202;51.578;7.734;2023-08-31T04:19:39;11.40;99.90
18153;DHT22;9202;51.578;7.734;2023-08-31T04:21:42;11.40;99.90
18153;DHT22;9202;51.578;7.734;2023-08-31T04:23:45;11.50;99.90
18153;DHT22;9202;51.578;7.734;2023-08-31T04:25:48;11.50;99.90
18153;DHT22;9202;51.578;7.734;2023-08-31T04:27:53;11.50;99.90
18153;DHT22;9202;51.578;7.734;2023-08-31T04:29:56;11.50;99.90
18153;DHT22;9202;51.578;7.734;2023-08-31T04:31:59;11.50;99.90
18153;DHT22;9202;51.578;7.734;2023-08-31T04:34:01;11.40;99.90
18153;DHT22;9202;51.578;7.734;2023-08-31T04:36:04;11.40;99.90
18153;DHT22;9202;51.578;7.734;2023-08-31T04:38:07;11.50;99.90
18153;DHT22;9202;51.578;7.734;2023-08-31T04:40:11;11.50;99.90
18153;DHT22;9202;51.578;7.734;2023-08-31T04:42:14;11.50;99.90
18153;DHT22;9202;51.578;7.734;2023-08-31T04:44:18;11.40;99.90
18153;DHT22;9202;51.578;7.734;2023-08-31T04:46:21;11.50;99.90
18153;DHT22;9202;51.578;7.734;2023-08-31T04:48:24;11.40;99.90
18153;DHT22;9202;51.578;7.734;2023-08-31T04:50:27;11.50;99.90
18153;DHT22;9202;51.578;7.734;2023-08-31T04:52:31;11.50;99.90
18153;DHT22;9202;51.578;7.734;2023-08-31T04:54:34;11.50;99.90
18153;DHT22;9202;51.578;7.734;2023-08-31T04:56:36;11.50;99.90
18153;DHT22;9202;51.578;7.734;2023-08-31T04:58:39;11.50;99.90
18153;DHT22;9202;51.578;7.734;2023-08-31T05:00:42;11.50;99.90
18153;DHT22;9202;51.578;7.734;2023-08-31T05:02:46;11.60;99.90
18153;DHT22;9202;51.578;7.734;2023-08-31T05:04:49;11.50;99.90
18153;DHT22;9202;51.578;7.734;2023-08-31T05:06:52;11.50;99.90
18153;DHT22;9202;51.578;7.734;2023-08-31T05:08:55;11.60;99.90
18153;DHT22;9202;51.578;7.734;2023-08-31T05:10:59;11.60;99.90
18153;DHT22;9202;51.578;7.734;2023-08-31T05:13:02;11.60;99.90
18153;DHT22;9202;51.578;7.734;2023-08-31T05:17:23;11.60;99.90
18153;DHT22;9202;51.578;7.734;2023-08-31T05:19:26;11.70;99.90
18153;DHT22;9202;51.578;7.734;2023-08-31T05:21:29;11.80;99.90
18153;DHT22;9202;51.578;7.734;2023-08-31T05:23:32;11.70;99.90
18153;DHT22;9202;51.578;7.734;2023-08-31T05:25:35;11.70;99.90
18153;DHT22;9202;51.578;7.734;2023-08-31T05:27:38;11.70;99.90
18153;DHT22;9202;51.578;7.734;2023-08-31T05:29:41;11.80;99.90
18153;DHT22;9202;51.578;7.734;2023-08-31T05:31:44;11.70;99.90
18153;DHT22;9202;51.578;7.734;2023-08-31T05:33:47;11.70;99.90
18153;DHT22;9202;51.578;7.734;2023-08-31T05:35:50;11.80;99.90
18153;DHT22;9202;51.578;7.734;2023-08-31T05:37:53;11.70;99.90
18153;DHT22;9202;51.578;7.734;2023-08-31T05:39:56;11.70;99.90
18153;DHT22;9202;51.578;7.734;2023-08-31T05:41:58;11.70;99.90
18153;DHT22;9202;51.578;7.734;2023-08-31T05:44:03;11.70;99.90
18153;DHT22;9202;51.578;7.734;2023-08-31T05:46:07;11.70;99.90
18153;DHT22;9202;51.578;7.734;2023-08-31T05:48:10;11.80;99.90
18153;DHT22;9202;51.578;7.734;2023-08-31T05:50:13;11.80;99.90
18153;DHT22;9202;51.578;7.734;2023-08-31T05:52:16;11.80;99.90
18153;DHT22;9202;51.578;7.734;2023-08-31T05:54:19;11.80;99.90
18153;DHT22;9202;51.578;7.734;2023-08-31T05:56:22;11.80;99.90
18153;DHT22;9202;51.578;7.734;2023-08-31T05:58:24;11.90;99.90
18153;DHT22;9202;51.578;7.734;2023-08-31T06:00:27;11.90;99.90
18153;DHT22;9202;51.578;7.734;2023-08-31T06:02:30;12.00;99.90
18153;DHT22;9202;51.578;7.734;2023-08-31T06:04:33;12.00;99.90
18153;DHT22;9202;51.578;7.734;2023-08-31T06:06:36;12.10;99.90
18153;DHT22;9202;51.578;7.734;2023-08-31T06:08:39;12.20;99.90
18153;DHT22;9202;51.578;7.734;2023-08-31T06:10:44;12.20;99.90
18153;DHT22;9202;51.578;7.734;2023-08-31T06:12:47;12.20;99.90
18153;DHT22;9202;51.578;7.734;2023-08-31T06:14:52;12.20;99.90
18153;DHT22;9202;51.578;7.734;2023-08-31T06:16:55;12.30;99.90
18153;DHT22;9202;51.578;7.734;2023-08-31T06:18:58;12.40;99.90
18153;DHT22;9202;51.578;7.734;2023-08-31T06:21:01;12.40;99.90
18153;DHT22;9202;51.578;7.734;2023-08-31T06:23:04;12.40;99.90
18153;DHT22;9202;51.578;7.734;2023-08-31T06:25:07;12.40;99.90
18153;DHT22;9202;51.578;7.734;2023-08-31T06:27:11;12.40;99.90
18153;DHT22;9202;51.578;7.734;2023-08-31T06:29:15;12.40;99.90
18153;DHT22;9202;51.578;7.734;2023-08-31T06:31:18;12.40;99.90
18153;DHT22;9202;51.578;7.734;2023-08-31T06:33:21;12.40;99.90
18153;DHT22;9202;51.578;7.734;2023-08-31T06:35:24;12.40;99.90
18153;DHT22;9202;51.578;7.734;2023-08-31T06:37:27;12.40;99.90
18153;DHT22;9202;51.578;7.734;2023-08-31T06:39:30;12.40;99.90
18153;DHT22;9202;51.578;7.734;2023-08-31T06:41:32;12.50;99.90
18153;DHT22;9202;51.578;7.734;2023-08-31T06:43:36;12.50;99.90
18153;DHT22;9202;51.578;7.734;2023-08-31T06:45:38;12.70;99.90
18153;DHT22;9202;51.578;7.734;2023-08-31T06:47:42;12.60;99.90
18153;DHT22;9202;51.578;7.734;2023-08-31T06:49:45;12.70;99.90
18153;DHT22;9202;51.578;7.734;2023-08-31T06:51:48;12.70;99.90
18153;DHT22;9202;51.578;7.734;2023-08-31T06:53:51;12.80;99.90
18153;DHT22;9202;51.578;7.734;2023-08-31T06:55:54;12.80;99.90
18153;DHT22;9202;51.578;7.734;2023-08-31T06:57:57;12.90;99.90
18153;DHT22;9202;51.578;7.734;2023-08-31T07:00:00;13.00;99.90
18153;DHT22;9202;51.578;7.734;2023-08-31T07:02:06;13.00;99.90
18153;DHT22;9202;51.578;7.734;2023-08-31T07:04:09;13.10;99.90
18153;DHT22;9202;51.578;7.734;2023-08-31T07:06:13;13.10;99.90
18153;DHT22;9202;51.578;7.734;2023-08-31T07:08:16;13.20;99.90
18153;DHT22;9202;51.578;7.734;2023-08-31T07:10:19;13.30;99.90
18153;DHT22;9202;51.578;7.734;2023-08-31T07:14:38;13.50;99.90
18153;DHT22;9202;51.578;7.734;2023-08-31T07:16:41;13.50;99.90
18153;DHT22;9202;51.578;7.734;2023-08-31T07:18:44;13.50;99.90
18153;DHT22;9202;51.578;7.734;2023-08-31T07:20:47;13.40;99.90
18153;DHT22;9202;51.578;7.734;2023-08-31T07:22:49;13.50;99.90
18153;DHT22;9202;51.578;7.734;2023-08-31T07:24:52;13.40;99.90
18153;DHT22;9202;51.578;7.734;2023-08-31T07:26:55;13.40;99.90
18153;DHT22;9202;51.578;7.734;2023-08-31T07:28:58;13.40;99.90
18153;DHT22;9202;51.578;7.734;2023-08-31T07:31:03;13.50;99.90
18153;DHT22;9202;51.578;7.734;2023-08-31T07:33:07;13.50;99.90
18153;DHT22;9202;51.578;7.734;2023-08-31T07:35:12;13.60;99.90
18153;DHT22;9202;51.578;7.734;2023-08-31T07:37:17;13.60;99.90
18153;DHT22;9202;51.578;7.734;2023-08-31T07:39:21;13.90;99.90
18153;DHT22;9202;51.578;7.734;2023-08-31T07:41:23;13.80;99.90
18153;DHT22;9202;51.578;7.734;2023-08-31T07:43:27;13.60;99.90
18153;DHT22;9202;51.578;7.734;2023-08-31T07:45:30;13.70;99.90
18153;DHT22;9202;51.578;7.734;2023-08-31T07:47:33;13.70;99.90
18153;DHT22;9202;51.578;7.734;2023-08-31T07:49:37;13.80;99.90
18153;DHT22;9202;51.578;7.734;2023-08-31T07:51:40;13.90;99.90
18153;DHT22;9202;51.578;7.734;2023-08-31T07:53:43;13.90;99.90
18153;DHT22;9202;51.578;7.734;2023-08-31T07:55:52;14.10;99.90
18153;DHT22;9202;51.578;7.734;2023-08-31T07:57:57;14.20;99.90
18153;DHT22;9202;51.578;7.734;2023-08-31T07:59:59;14.20;99.90
18153;DHT22;9202;51.578;7.734;2023-08-31T08:02:06;13.60;99.90
18153;DHT22;9202;51.578;7.734;2023-08-31T08:04:09;14.10;99.90
18153;DHT22;9202;51.578;7.734;2023-08-31T08:06:12;14.20;99.90
18153;DHT22;9202;51.578;7.734;2023-08-31T08:08:16;14.30;99.90
18153;DHT22;9202;51.578;7.734;2023-08-31T08:10:19;14.40;99.90
18153;DHT22;9202;51.578;7.734;2023-08-31T08:12:26;14.50;99.90
18153;DHT22;9202;51.578;7.734;2023-08-31T08:14:32;15.80;99.90
18153;DHT22;9202;51.578;7.734;2023-08-31T08:16:36;14.70;99.90
18153;DHT22;9202;51.578;7.734;2023-08-31T08:18:39;14.60;99.90
18153;DHT22;9202;51.578;7.734;2023-08-31T08:20:42;14.60;99.90
18153;DHT22;9202;51.578;7.734;2023-08-31T08:22:45;14.50;99.90
18153;DHT22;9202;51.578;7.734;2023-08-31T08:24:49;14.40;99.90
18153;DHT22;9202;51.578;7.734;2023-08-31T08:26:52;14.30;99.90
18153;DHT22;9202;51.578;7.734;2023-08-31T08:28:55;14.20;99.90
18153;DHT22;9202;51.578;7.734;2023-08-31T08:31:00;14.20;99.90
18153;DHT22;9202;51.578;7.734;2023-08-31T08:33:05;14.20;99.90
18153;DHT22;9202;51.578;7.734;2023-08-31T08:35:08;14.20;99.90
18153;DHT22;9202;51.578;7.734;2023-08-31T08:37:11;14.20;99.90
18153;DHT22;9202;51.578;7.734;2023-08-31T08:39:14;14.30;99.90
18153;DHT22;9202;51.578;7.734;2023-08-31T08:41:17;14.40;99.90
18153;DHT22;9202;51.578;7.734;2023-08-31T08:43:22;14.40;99.90
18153;DHT22;9202;51.578;7.734;2023-08-31T08:47:26;14.50;99.90
18153;DHT22;9202;51.578;7.734;2023-08-31T08:49:29;14.60;99.90
18153;DHT22;9202;51.578;7.734;2023-08-31T08:51:33;14.60;99.90
18153;DHT22;9202;51.578;7.734;2023-08-31T08:53:36;14.70;99.90
18153;DHT22;9202;51.578;7.734;2023-08-31T08:55:40;14.70;99.90
18153;DHT22;9202;51.578;7.734;2023-08-31T08:57:43;14.80;99.90
18153;DHT22;9202;51.578;7.734;2023-08-31T08:59:46;14.90;99.90
18153;DHT22;9202;51.578;7.734;2023-08-31T09:01:49;14.90;99.90
18153;DHT22;9202;51.578;7.734;2023-08-31T09:03:52;14.90;99.90
18153;DHT22;9202;51.578;7.734;2023-08-31T09:05:55;15.00;99.90
18153;DHT22;9202;51.578;7.734;2023-08-31T09:08:00;15.20;99.90
18153;DHT22;9202;51.578;7.734;2023-08-31T09:10:04;15.30;99.90
18153;DHT22;9202;51.578;7.734;2023-08-31T09:33:55;15.50;99.90
18153;DHT22;9202;51.578;7.734;2023-08-31T09:35:59;15.60;99.90
18153;DHT22;9202;51.578;7.734;2023-08-31T09:38:03;15.50;99.90
18153;DHT22;9202;51.578;7.734;2023-08-31T09:40:09;15.50;99.90
18153;DHT22;9202;51.578;7.734;2023-08-31T09:42:12;15.50;99.90
18153;DHT22;9202;51.578;7.734;2023-08-31T09:44:15;15.50;99.90
18153;DHT22;9202;51.578;7.734;2023-08-31T09:46:18;15.60;99.90
18153;DHT22;9202;51.578;7.734;2023-08-31T09:48:23;15.60;99.90
18153;DHT22;9202;51.578;7.734;2023-08-31T09:50:26;15.60;99.90
18153;DHT22;9202;51.578;7.734;2023-08-31T09:52:30;15.60;99.90
18153;DHT22;9202;51.578;7.734;2023-08-31T09:54:34;15.60;99.90
18153;DHT22;9202;51.578;7.734;2023-08-31T09:56:37;15.70;99.90
18153;DHT22;9202;51.578;7.734;2023-08-31T09:58:40;15.80;99.90
18153;DHT22;9202;51.578;7.734;2023-08-31T10:00:43;15.90;99.90
18153;DHT22;9202;51.578;7.734;2023-08-31T10:02:47;16.10;99.90
18153;DHT22;9202;51.578;7.734;2023-08-31T10:04:51;16.50;99.90
18153;DHT22;9202;51.578;7.734;2023-08-31T10:06:55;16.60;99.90
18153;DHT22;9202;51.578;7.734;2023-08-31T10:08:59;16.70;99.90
18153;DHT22;9202;51.578;7.734;2023-08-31T10:11:02;16.80;99.90
18153;DHT22;9202;51.578;7.734;2023-08-31T10:13:06;16.80;99.90
18153;DHT22;9202;51.578;7.734;2023-08-31T10:15:10;16.60;99.90
18153;DHT22;9202;51.578;7.734;2023-08-31T10:17:14;16.50;99.90
18153;DHT22;9202;51.578;7.734;2023-08-31T10:19:17;16.30;99.90
18153;DHT22;9202;51.578;7.734;2023-08-31T10:21:19;15.90;99.90
18153;DHT22;9202;51.578;7.734;2023-08-31T10:23:23;15.60;99.90
18153;DHT22;9202;51.578;7.734;2023-08-31T10:25:27;15.50;99.90
18153;DHT22;9202;51.578;7.734;2023-08-31T10:27:36;15.40;99.90
18153;DHT22;9202;51.578;7.734;2023-08-31T10:29:39;15.40;99.90
18153;DHT22;9202;51.578;7.734;2023-08-31T10:31:42;15.40;99.90
18153;DHT22;9202;51.578;7.734;2023-08-31T10:33:47;15.30;99.90
18153;DHT22;9202;51.578;7.734;2023-08-31T10:35:52;15.20;99.90
18153;DHT22;9202;51.578;7.734;2023-08-31T10:38:05;15.20;99.90
18153;DHT22;9202;51.578;7.734;2023-08-31T10:40:10;15.20;99.90
18153;DHT22;9202;51.578;7.734;2023-08-31T10:42:14;15.30;99.90
18153;DHT22;9202;51.578;7.734;2023-08-31T10:44:20;15.40;99.90
18153;DHT22;9202;51.578;7.734;2023-08-31T10:46:27;15.50;99.90
18153;DHT22;9202;51.578;7.734;2023-08-31T10:48:31;15.50;99.90
18153;DHT22;9202;51.578;7.734;2023-08-31T10:50:40;15.60;99.90
18153;DHT22;9202;51.578;7.734;2023-08-31T10:52:44;15.60;99.90
18153;DHT22;9202;51.578;7.734;2023-08-31T10:54:51;15.60;99.90
18153;DHT22;9202;51.578;7.734;2023-08-31T10:56:53;15.40;99.90
18153;DHT22;9202;51.578;7.734;2023-08-31T10:58:58;15.30;99.90
18153;DHT22;9202;51.578;7.734;2023-08-31T11:01:01;15.00;99.90
18153;DHT22;9202;51.578;7.734;2023-08-31T11:03:05;14.80;99.90
18153;DHT22;9202;51.578;7.734;2023-08-31T11:05:09;14.60;99.90
18153;DHT22;9202;51.578;7.734;2023-08-31T11:07:16;14.50;99.90
18153;DHT22;9202;51.578;7.734;2023-08-31T11:09:21;14.50;99.90
18153;DHT22;9202;51.578;7.734;2023-08-31T11:11:25;14.40;99.90
18153;DHT22;9202;51.578;7.734;2023-08-31T11:13:28;14.50;99.90
18153;DHT22;9202;51.578;7.734;2023-08-31T11:15:31;14.40;99.90
18153;DHT22;9202;51.578;7.734;2023-08-31T11:17:34;14.50;99.90
18153;DHT22;9202;51.578;7.734;2023-08-31T11:19:37;14.50;99.90
18153;DHT22;9202;51.578;7.734;2023-08-31T11:21:40;14.60;99.90
18153;DHT22;9202;51.578;7.734;2023-08-31T11:23:43;14.70;99.90
18153;DHT22;9202;51.578;7.734;2023-08-31T11:25:47;14.70;99.90
18153;DHT22;9202;51.578;7.734;2023-08-31T11:27:54;14.70;99.90
18153;DHT22;9202;51.578;7.734;2023-08-31T11:29:57;14.70;99.90
18153;DHT22;9202;51.578;7.734;2023-08-31T11:32:01;14.70;99.90
18153;DHT22;9202;51.578;7.734;2023-08-31T11:34:05;14.70;99.90
18153;DHT22;9202;51.578;7.734;2023-08-31T11:36:08;14.70;99.90
18153;DHT22;9202;51.578;7.734;2023-08-31T11:38:13;14.60;99.90
18153;DHT22;9202;51.578;7.734;2023-08-31T11:40:16;14.50;99.90
18153;DHT22;9202;51.578;7.734;2023-08-31T11:42:20;14.50;99.90
18153;DHT22;9202;51.578;7.734;2023-08-31T11:44:23;14.40;99.90
18153;DHT22;9202;51.578;7.734;2023-08-31T11:46:26;14.50;99.90
18153;DHT22;9202;51.578;7.734;2023-08-31T11:48:29;14.40;99.90
18153;DHT22;9202;51.578;7.734;2023-08-31T11:50:32;14.50;99.90
18153;DHT22;9202;51.578;7.734;2023-08-31T11:52:35;14.50;99.90
18153;DHT22;9202;51.578;7.734;2023-08-31T11:54:38;14.70;99.90
18153;DHT22;9202;51.578;7.734;2023-08-31T11:56:42;14.80;99.90
18153;DHT22;9202;51.578;7.734;2023-08-31T11:58:46;14.90;99.90
18153;DHT22;9202;51.578;7.734;2023-08-31T12:00:58;15.10;99.90
18153;DHT22;9202;51.578;7.734;2023-08-31T12:03:01;15.20;99.90
18153;DHT22;9202;51.578;7.734;2023-08-31T12:05:07;15.30;99.90
18153;DHT22;9202;51.578;7.734;2023-08-31T12:07:10;15.40;99.90
18153;DHT22;9202;51.578;7.734;2023-08-31T12:09:13;15.40;99.90
18153;DHT22;9202;51.578;7.734;2023-08-31T12:11:16;15.50;99.90
18153;DHT22;9202;51.578;7.734;2023-08-31T12:13:20;15.80;99.90
18153;DHT22;9202;51.578;7.734;2023-08-31T12:15:30;15.90;99.90
18153;DHT22;9202;51.578;7.734;2023-08-31T12:17:37;16.00;99.90
18153;DHT22;9202;51.578;7.734;2023-08-31T12:19:40;16.20;99.90
18153;DHT22;9202;51.578;7.734;2023-08-31T12:21:43;16.20;99.90
18153;DHT22;9202;51.578;7.734;2023-08-31T12:23:46;16.20;99.90
18153;DHT22;9202;51.578;7.734;2023-08-31T12:25:49;16.30;99.90
18153;DHT22;9202;51.578;7.734;2023-08-31T12:27:52;16.30;99.90
18153;DHT22;9202;51.578;7.734;2023-08-31T12:29:55;16.20;99.90
18153;DHT22;9202;51.578;7.734;2023-08-31T12:31:59;16.10;99.90
18153;DHT22;9202;51.578;7.734;2023-08-31T12:34:02;16.00;99.90
18153;DHT22;9202;51.578;7.734;2023-08-31T12:36:08;15.90;99.90
18153;DHT22;9202;51.578;7.734;2023-08-31T12:38:11;15.90;99.90
18153;DHT22;9202;51.578;7.734;2023-08-31T12:40:17;15.90;99.90
18153;DHT22;9202;51.578;7.734;2023-08-31T12:42:22;16.10;99.90
18153;DHT22;9202;51.578;7.734;2023-08-31T12:44:25;16.30;99.90
18153;DHT22;9202;51.578;7.734;2023-08-31T12:46:28;16.60;99.90
18153;DHT22;9202;51.578;7.734;2023-08-31T12:48:32;16.80;99.90
18153;DHT22;9202;51.578;7.734;2023-08-31T12:50:34;16.90;99.90
18153;DHT22;9202;51.578;7.734;2023-08-31T12:52:38;16.80;99.90
18153;DHT22;9202;51.578;7.734;2023-08-31T12:54:42;16.80;99.90
18153;DHT22;9202;51.578;7.734;2023-08-31T12:56:45;16.80;99.90
18153;DHT22;9202;51.578;7.734;2023-08-31T12:58:48;16.70;99.90
18153;DHT22;9202;51.578;7.734;2023-08-31T13:00:51;16.60;99.90
18153;DHT22;9202;51.578;7.734;2023-08-31T13:02:55;16.80;99.90
18153;DHT22;9202;51.578;7.734;2023-08-31T13:04:58;17.00;99.90
18153;DHT22;9202;51.578;7.734;2023-08-31T13:07:01;17.00;99.90
18153;DHT22;9202;51.578;7.734;2023-08-31T13:09:05;17.10;99.90
18153;DHT22;9202;51.578;7.734;2023-08-31T13:11:15;17.20;99.90
18153;DHT22;9202;51.578;7.734;2023-08-31T13:13:20;17.30;99.90
18153;DHT22;9202;51.578;7.734;2023-08-31T13:15:23;17.30;99.90
18153;DHT22;9202;51.578;7.734;2023-08-31T13:17:26;17.30;99.90
18153;DHT22;9202;51.578;7.734;2023-08-31T13:19:29;17.20;99.90
18153;DHT22;9202;51.578;7.734;2023-08-31T13:21:34;17.10;99.90
18153;DHT22;9202;51.578;7.734;2023-08-31T13:23:38;16.90;99.90
18153;DHT22;9202;51.578;7.734;2023-08-31T13:25:40;16.90;99.90
18153;DHT22;9202;51.578;7.734;2023-08-31T13:27:43;16.30;99.90
18153;DHT22;9202;51.578;7.734;2023-08-31T13:29:48;16.80;99.90
18153;DHT22;9202;51.578;7.734;2023-08-31T13:31:51;17.10;99.90
18153;DHT22;9202;51.578;7.734;2023-08-31T13:33:54;17.10;99.90
18153;DHT22;9202;51.578;7.734;2023-08-31T13:35:57;17.10;99.90
18153;DHT22;9202;51.578;7.734;2023-08-31T13:38:00;17.60;99.90
18153;DHT22;9202;51.578;7.734;2023-08-31T13:40:04;17.70;99.90
18153;DHT22;9202;51.578;7.734;2023-08-31T13:42:10;17.80;99.90
18153;DHT22;9202;51.578;7.734;2023-08-31T13:44:13;17.70;99.90
18153;DHT22;9202;51.578;7.734;2023-08-31T13:46:15;17.70;99.90
18153;DHT22;9202;51.578;7.734;2023-08-31T13:48:18;17.90;99.90